Sedov — UELO — position and weather

sailwx.info

Track history (hours):
 
Tides and Currents Weather Stations Pressure Air Temp Water Temp Dewpoint Dewpoint Depression Visibility Wind Speed Wind Dir Waves Ship Positions

Sedov (Russia)

Last reported at 2014-Jul-20 08:33 UTC. Time now 2014-Jul-25 11:25 UTC.
Position N 32°39' W 017°07'.

Length 118 m; draft 6.5 m.

Type: Sailing vessel. MMSI: 273510000.

Date/timePositionNaut miles runAvg speedWind from/ knotsBaromVisibWave heightAir tempDewpointWater temp
2014-Jul-20 08:33N 32°39' W 017°07'9 9.4
2014-Jul-20 07:33N 32°37' W 016°56'2 1.8
2014-Jul-20 06:32N 32°39' W 016°55'0 0.0
2014-Jul-20 05:32N 32°39' W 016°55'0 0.0
2014-Jul-20 04:32N 32°39' W 016°55'0 0.0
2014-Jul-20 03:32N 32°39' W 016°55'0 0.0
2014-Jul-20 02:29N 32°39' W 016°55'0 0.0
2014-Jul-20 01:29N 32°39' W 016°55'0 0.0
2014-Jul-20 00:32N 32°39' W 016°55'0 0.0
2014-Jul-19 23:32N 32°39' W 016°55'0 0.0
2014-Jul-19 22:32N 32°39' W 016°55'0 0.0
2014-Jul-19 21:32N 32°39' W 016°55'0 0.0
2014-Jul-19 20:32N 32°39' W 016°55'0 0.0
2014-Jul-19 19:29N 32°39' W 016°55'0 0.0
2014-Jul-19 18:32N 32°39' W 016°55'0 0.0
2014-Jul-19 17:32N 32°39' W 016°55'0 0.0
2014-Jul-19 16:32N 32°39' W 016°55'0 0.0
2014-Jul-19 15:32N 32°39' W 016°55'0 0.0
2014-Jul-19 14:32N 32°39' W 016°55'0 0.0
2014-Jul-19 13:29N 32°39' W 016°55'0 0.0
2014-Jul-19 12:29N 32°39' W 016°55'0 0.0
2014-Jul-19 11:32N 32°39' W 016°55'0 0.0
2014-Jul-19 10:32N 32°39' W 016°55'0 0.0
2014-Jul-19 09:32N 32°39' W 016°55'0 0.0
2014-Jul-19 08:32N 32°39' W 016°55'0 0.0
2014-Jul-19 07:29N 32°39' W 016°55'0 0.0
2014-Jul-19 06:32N 32°39' W 016°55'0 0.0
2014-Jul-19 05:32N 32°39' W 016°55'0 0.0
2014-Jul-19 04:32N 32°39' W 016°55'0 0.0
2014-Jul-19 03:32N 32°39' W 016°55'0 0.0
2014-Jul-19 02:32N 32°39' W 016°55'0 0.0
2014-Jul-19 01:32N 32°39' W 016°55'0 0.0
2014-Jul-19 00:32N 32°39' W 016°55'0 0.0
2014-Jul-18 23:26N 32°39' W 016°55'0 0.0
2014-Jul-18 22:29N 32°39' W 016°55'0 0.0
2014-Jul-18 21:29N 32°39' W 016°55'0 0.0
2014-Jul-18 20:32N 32°39' W 016°55'0 0.0
2014-Jul-18 19:32N 32°39' W 016°55'0 0.0
2014-Jul-18 18:32N 32°39' W 016°55'0 0.0
2014-Jul-18 17:32N 32°39' W 016°55'0 0.0
2014-Jul-18 16:32N 32°39' W 016°55'0 0.0
2014-Jul-18 15:32N 32°39' W 016°55'0 0.0
2014-Jul-18 14:32N 32°39' W 016°55'0 0.0
2014-Jul-18 13:31N 32°39' W 016°55'0 0.0
2014-Jul-18 12:31N 32°39' W 016°55'0 0.0
2014-Jul-18 11:29N 32°39' W 016°55'0 0.0
2014-Jul-18 10:32N 32°39' W 016°55'0 0.0
2014-Jul-18 09:32N 32°39' W 016°55'0 0.0
2014-Jul-18 08:32N 32°39' W 016°55'0 0.0
2014-Jul-18 07:31N 32°39' W 016°55'0 0.0
2014-Jul-18 06:32N 32°39' W 016°55'0 0.0
2014-Jul-18 05:28N 32°39' W 016°55'0 0.0
2014-Jul-18 04:31N 32°39' W 016°55'0 0.0
2014-Jul-18 03:32N 32°39' W 016°55'0 0.0
2014-Jul-18 02:31N 32°39' W 016°55'0 0.0
2014-Jul-18 01:31N 32°39' W 016°55'0 0.0
2014-Jul-18 00:31N 32°39' W 016°55'0 0.0
2014-Jul-17 23:31N 32°39' W 016°55'0 0.0
2014-Jul-17 22:31N 32°39' W 016°55'0 0.0
2014-Jul-17 21:28N 32°39' W 016°55'0 0.0
2014-Jul-17 20:31N 32°39' W 016°55'0 0.0
2014-Jul-17 19:31N 32°39' W 016°55'0 0.0
2014-Jul-17 18:28N 32°39' W 016°55'0 0.0
2014-Jul-17 17:28N 32°39' W 016°55'0 0.0
2014-Jul-17 16:31N 32°39' W 016°55'0 0.0
2014-Jul-17 15:31N 32°39' W 016°55'0 0.0
2014-Jul-17 14:31N 32°39' W 016°55'0 0.0
2014-Jul-17 13:31N 32°39' W 016°55'0 0.0
2014-Jul-17 12:31N 32°39' W 016°55'0 0.0
2014-Jul-17 11:31N 32°39' W 016°55'0 0.0
2014-Jul-17 10:31N 32°39' W 016°55'0 0.0
2014-Jul-17 09:31N 32°39' W 016°55'0 0.0
2014-Jul-17 08:31N 32°39' W 016°55'0 0.2
2014-Jul-17 07:33N 32°39' W 016°55'6 6.1
2014-Jul-17 06:33N 32°33' W 016°53'3 3.0
2014-Jul-17 05:33N 32°30' W 016°52'0 0.3
2014-Jul-17 04:33N 32°30' W 016°52'1 0.6
2014-Jul-17 03:33N 32°31' W 016°52'1 0.6
2014-Jul-17 02:33N 32°31' W 016°52'0 0.3
2014-Jul-17 01:33N 32°32' W 016°52'0 0.4
2014-Jul-17 00:33N 32°32' W 016°52'1 0.6
2014-Jul-16 23:34N 32°32' W 016°52'1 0.6
2014-Jul-16 22:33N 32°33' W 016°52'1 0.7
2014-Jul-16 21:33N 32°34' W 016°52'5 5.0
2014-Jul-16 20:34N 32°36' W 016°47'  
2014-Jul-13 19:04N 35°02' W 009°58'4 7.1
2014-Jul-13 18:32N 35°04' W 009°54'160 6.4
2014-Jul-12 17:18N 35°49' W 006°45'7 9.0
2014-Jul-12 16:33N 35°52' W 006°37'9 8.8
2014-Jul-12 15:33N 35°55' W 006°27'8 7.6
2014-Jul-12 14:33N 35°57' W 006°18'299 6.0
2014-Jul-10 12:29N 37°30' W 000°23'6 6.4
2014-Jul-10 11:33N 37°33' W 000°17'1110.5
2014-Jul-10 10:32N 37°38' W 000°05'  
Track history (hours):
 
Tides and Currents Weather Stations Pressure Air Temp Water Temp Dewpoint Dewpoint Depression Visibility Wind Speed Wind Dir Waves Ship Positions

Sedov (Russia)

Last reported at 2014-Jul-20 08:33 UTC. Time now 2014-Jul-25 11:25 UTC.
Position N 32°39' W 017°07'.

Length 118 m; draft 6.5 m.

Type: Sailing vessel. MMSI: 273510000.

Date/timePositionNaut miles runAvg speedWind from/ knotsBaromVisibWave heightAir tempDewpointWater temp
2014-Jul-20 08:33N 32°39' W 017°07'9 9.4
2014-Jul-20 07:33N 32°37' W 016°56'2 1.8
2014-Jul-20 06:32N 32°39' W 016°55'0 0.0
2014-Jul-20 05:32N 32°39' W 016°55'0 0.0
2014-Jul-20 04:32N 32°39' W 016°55'0 0.0
2014-Jul-20 03:32N 32°39' W 016°55'0 0.0
2014-Jul-20 02:29N 32°39' W 016°55'0 0.0
2014-Jul-20 01:29N 32°39' W 016°55'0 0.0
2014-Jul-20 00:32N 32°39' W 016°55'0 0.0
2014-Jul-19 23:32N 32°39' W 016°55'0 0.0
2014-Jul-19 22:32N 32°39' W 016°55'0 0.0
2014-Jul-19 21:32N 32°39' W 016°55'0 0.0
2014-Jul-19 20:32N 32°39' W 016°55'0 0.0
2014-Jul-19 19:29N 32°39' W 016°55'0 0.0
2014-Jul-19 18:32N 32°39' W 016°55'0 0.0
2014-Jul-19 17:32N 32°39' W 016°55'0 0.0
2014-Jul-19 16:32N 32°39' W 016°55'0 0.0
2014-Jul-19 15:32N 32°39' W 016°55'0 0.0
2014-Jul-19 14:32N 32°39' W 016°55'0 0.0
2014-Jul-19 13:29N 32°39' W 016°55'0 0.0
2014-Jul-19 12:29N 32°39' W 016°55'0 0.0
2014-Jul-19 11:32N 32°39' W 016°55'0 0.0
2014-Jul-19 10:32N 32°39' W 016°55'0 0.0
2014-Jul-19 09:32N 32°39' W 016°55'0 0.0
2014-Jul-19 08:32N 32°39' W 016°55'0 0.0
2014-Jul-19 07:29N 32°39' W 016°55'0 0.0
2014-Jul-19 06:32N 32°39' W 016°55'0 0.0
2014-Jul-19 05:32N 32°39' W 016°55'0 0.0
2014-Jul-19 04:32N 32°39' W 016°55'0 0.0
2014-Jul-19 03:32N 32°39' W 016°55'0 0.0
2014-Jul-19 02:32N 32°39' W 016°55'0 0.0
2014-Jul-19 01:32N 32°39' W 016°55'0 0.0
2014-Jul-19 00:32N 32°39' W 016°55'0 0.0
2014-Jul-18 23:26N 32°39' W 016°55'0 0.0
2014-Jul-18 22:29N 32°39' W 016°55'0 0.0
2014-Jul-18 21:29N 32°39' W 016°55'0 0.0
2014-Jul-18 20:32N 32°39' W 016°55'0 0.0
2014-Jul-18 19:32N 32°39' W 016°55'0 0.0
2014-Jul-18 18:32N 32°39' W 016°55'0 0.0
2014-Jul-18 17:32N 32°39' W 016°55'0 0.0
2014-Jul-18 16:32N 32°39' W 016°55'0 0.0
2014-Jul-18 15:32N 32°39' W 016°55'0 0.0
2014-Jul-18 14:32N 32°39' W 016°55'0 0.0
2014-Jul-18 13:31N 32°39' W 016°55'0 0.0
2014-Jul-18 12:31N 32°39' W 016°55'0 0.0
2014-Jul-18 11:29N 32°39' W 016°55'0 0.0
2014-Jul-18 10:32N 32°39' W 016°55'0 0.0
2014-Jul-18 09:32N 32°39' W 016°55'0 0.0
2014-Jul-18 08:32N 32°39' W 016°55'0 0.0
2014-Jul-18 07:31N 32°39' W 016°55'0 0.0
2014-Jul-18 06:32N 32°39' W 016°55'0 0.0
2014-Jul-18 05:28N 32°39' W 016°55'0 0.0
2014-Jul-18 04:31N 32°39' W 016°55'0 0.0
2014-Jul-18 03:32N 32°39' W 016°55'0 0.0
2014-Jul-18 02:31N 32°39' W 016°55'0 0.0
2014-Jul-18 01:31N 32°39' W 016°55'0 0.0
2014-Jul-18 00:31N 32°39' W 016°55'0 0.0
2014-Jul-17 23:31N 32°39' W 016°55'0 0.0
2014-Jul-17 22:31N 32°39' W 016°55'0 0.0
2014-Jul-17 21:28N 32°39' W 016°55'0 0.0
2014-Jul-17 20:31N 32°39' W 016°55'0 0.0
2014-Jul-17 19:31N 32°39' W 016°55'0 0.0
2014-Jul-17 18:28N 32°39' W 016°55'0 0.0
2014-Jul-17 17:28N 32°39' W 016°55'0 0.0
2014-Jul-17 16:31N 32°39' W 016°55'0 0.0
2014-Jul-17 15:31N 32°39' W 016°55'0 0.0
2014-Jul-17 14:31N 32°39' W 016°55'0 0.0
2014-Jul-17 13:31N 32°39' W 016°55'0 0.0
2014-Jul-17 12:31N 32°39' W 016°55'0 0.0
2014-Jul-17 11:31N 32°39' W 016°55'0 0.0
2014-Jul-17 10:31N 32°39' W 016°55'0 0.0
2014-Jul-17 09:31N 32°39' W 016°55'0 0.0
2014-Jul-17 08:31N 32°39' W 016°55'0 0.2
2014-Jul-17 07:33N 32°39' W 016°55'6 6.1
2014-Jul-17 06:33N 32°33' W 016°53'3 3.0
2014-Jul-17 05:33N 32°30' W 016°52'0 0.3
2014-Jul-17 04:33N 32°30' W 016°52'1 0.6
2014-Jul-17 03:33N 32°31' W 016°52'1 0.6
2014-Jul-17 02:33N 32°31' W 016°52'0 0.3
2014-Jul-17 01:33N 32°32' W 016°52'0 0.4
2014-Jul-17 00:33N 32°32' W 016°52'1 0.6
2014-Jul-16 23:34N 32°32' W 016°52'1 0.6
2014-Jul-16 22:33N 32°33' W 016°52'1 0.7
2014-Jul-16 21:33N 32°34' W 016°52'5 5.0
2014-Jul-16 20:34N 32°36' W 016°47'  
2014-Jul-13 19:04N 35°02' W 009°58'4 7.1
2014-Jul-13 18:32N 35°04' W 009°54'160 6.4
2014-Jul-12 17:18N 35°49' W 006°45'7 9.0
2014-Jul-12 16:33N 35°52' W 006°37'9 8.8
2014-Jul-12 15:33N 35°55' W 006°27'8 7.6
2014-Jul-12 14:33N 35°57' W 006°18'299 6.0
2014-Jul-10 12:29N 37°30' W 000°23'6 6.4
2014-Jul-10 11:33N 37°33' W 000°17'1110.5
2014-Jul-10 10:32N 37°38' W 000°05'  

Dump ship's entire track history